createdAt,value
2022-10-15T00:00:50.994Z,11.73
2022-10-15T00:03:17.866Z,13.07
2022-10-15T00:05:44.758Z,12.43
2022-10-15T00:08:12.417Z,12.27
2022-10-15T00:10:39.357Z,12.27
2022-10-15T00:13:06.639Z,12.27
2022-10-15T00:15:36.275Z,12.80
2022-10-15T00:18:03.177Z,12.02
2022-10-15T00:20:30.357Z,12.63
2022-10-15T00:22:57.477Z,12.43
2022-10-15T00:25:24.404Z,12.40
2022-10-15T00:27:51.306Z,12.35
2022-10-15T00:30:18.268Z,11.85
2022-10-15T00:32:45.110Z,11.93
2022-10-15T00:35:11.994Z,11.82
2022-10-15T00:37:38.922Z,10.95
2022-10-15T00:40:06.624Z,11.30
2022-10-15T00:42:33.736Z,10.88
2022-10-15T00:45:00.650Z,10.45
2022-10-15T00:47:38.455Z,11.55
2022-10-15T00:50:08.138Z,12.38
2022-10-15T00:52:35.470Z,10.77
2022-10-15T00:55:17.636Z,10.35
2022-10-15T00:57:47.288Z,11.20
2022-10-15T01:00:15.755Z,11.18
2022-10-15T01:02:43.761Z,10.98
2022-10-15T01:05:11.690Z,11.00
2022-10-15T01:07:38.575Z,11.07
2022-10-15T01:10:07.385Z,10.07
2022-10-15T01:12:58.808Z,11.32
2022-10-15T01:15:43.785Z,10.82
2022-10-15T01:18:15.765Z,11.55
2022-10-15T01:20:52.320Z,11.05
2022-10-15T01:23:44.294Z,11.13
2022-10-15T01:26:22.865Z,11.02
2022-10-15T01:29:10.841Z,10.93
2022-10-15T01:31:49.351Z,10.85
2022-10-15T01:34:29.799Z,11.13
2022-10-15T01:37:07.521Z,11.35
2022-10-15T01:39:44.766Z,10.48
2022-10-15T01:42:44.951Z,10.43
2022-10-15T01:45:21.804Z,9.57
2022-10-15T01:47:52.743Z,10.50
2022-10-15T01:50:23.756Z,11.05
2022-10-15T01:52:51.993Z,10.32
2022-10-15T01:55:21.419Z,10.45
2022-10-15T01:57:49.516Z,10.13
2022-10-15T02:00:17.350Z,10.52
2022-10-15T02:02:44.390Z,10.50
2022-10-15T02:05:17.839Z,10.18
2022-10-15T02:07:57.184Z,9.10
2022-10-15T02:10:43.290Z,10.38
2022-10-15T02:13:28.783Z,10.57
2022-10-15T02:15:58.333Z,9.80
2022-10-15T02:18:36.288Z,10.75
2022-10-15T02:21:08.268Z,9.70
2022-10-15T02:23:46.782Z,9.98
2022-10-15T02:26:16.083Z,10.27
2022-10-15T02:28:45.307Z,10.73
2022-10-15T02:31:14.724Z,10.88
2022-10-15T02:33:43.280Z,10.05
2022-10-15T02:36:10.437Z,10.60
2022-10-15T02:38:40.670Z,10.38
2022-10-15T02:41:09.218Z,10.00
2022-10-15T02:43:37.480Z,11.02
2022-10-15T02:46:05.577Z,10.20
2022-10-15T02:48:32.398Z,10.93
2022-10-15T02:50:59.210Z,10.13
2022-10-15T02:53:26.207Z,10.88
2022-10-15T02:55:53.004Z,10.82
2022-10-15T02:58:19.820Z,9.93
2022-10-15T03:00:46.761Z,10.63
2022-10-15T03:03:13.768Z,11.90
2022-10-15T03:05:40.933Z,9.95
2022-10-15T03:08:07.783Z,10.73
2022-10-15T03:10:34.677Z,11.40
2022-10-15T03:13:05.269Z,10.18
2022-10-15T03:15:32.657Z,12.25
2022-10-15T03:17:59.649Z,11.18
2022-10-15T03:20:26.939Z,12.48
2022-10-15T03:22:54.049Z,12.27
2022-10-15T03:25:21.009Z,11.45
2022-10-15T03:27:48.602Z,12.15
2022-10-15T03:30:15.628Z,13.05
2022-10-15T03:35:10.542Z,11.45
2022-10-15T03:37:37.576Z,12.07
2022-10-15T03:40:04.853Z,12.63
2022-10-15T03:42:31.748Z,10.82
2022-10-15T03:44:58.592Z,11.10
2022-10-15T03:47:25.463Z,12.35
2022-10-15T03:49:52.389Z,11.65
2022-10-15T03:52:19.428Z,11.75
2022-10-15T03:54:46.334Z,12.20
2022-10-15T03:57:13.306Z,11.48
2022-10-15T03:59:40.521Z,10.65
2022-10-15T04:02:07.570Z,10.68
2022-10-15T04:04:34.402Z,10.80
2022-10-15T04:07:01.304Z,10.48
2022-10-15T04:09:28.279Z,10.95
2022-10-15T04:11:55.119Z,10.85
2022-10-15T04:14:22.095Z,11.45
2022-10-15T04:16:49.432Z,12.10
2022-10-15T04:19:16.313Z,11.73
2022-10-15T04:21:43.425Z,12.20
2022-10-15T04:24:10.641Z,11.85
2022-10-15T04:26:38.046Z,12.05
2022-10-15T04:29:05.004Z,10.90
2022-10-15T04:31:32.190Z,10.98
2022-10-15T04:33:59.319Z,11.93
2022-10-15T04:36:26.180Z,11.70
2022-10-15T04:38:53.532Z,10.55
2022-10-15T04:41:20.456Z,12.05
2022-10-15T04:43:47.428Z,11.75
2022-10-15T04:46:14.300Z,10.98
2022-10-15T04:48:43.181Z,11.77
2022-10-15T04:51:16.486Z,10.95
2022-10-15T04:53:43.712Z,10.70
2022-10-15T04:56:17.967Z,11.48
2022-10-15T04:58:47.000Z,12.18
2022-10-15T05:01:17.008Z,12.32
2022-10-15T05:03:45.546Z,13.57
2022-10-15T05:06:17.692Z,11.70
2022-10-15T05:08:45.436Z,11.65
2022-10-15T05:11:25.008Z,11.93
2022-10-15T05:13:52.489Z,11.55
2022-10-15T05:16:21.795Z,11.60
2022-10-15T05:18:52.577Z,11.75
2022-10-15T05:21:20.282Z,11.40
2022-10-15T05:23:48.207Z,10.75
2022-10-15T05:26:19.213Z,11.68
2022-10-15T05:28:46.653Z,11.23
2022-10-15T05:31:19.136Z,11.10
2022-10-15T05:33:48.329Z,12.25
2022-10-15T05:36:21.222Z,12.93
2022-10-15T05:38:53.019Z,12.60
2022-10-15T05:41:20.652Z,12.25
2022-10-15T05:43:48.849Z,12.40
2022-10-15T05:46:17.101Z,13.20
2022-10-15T05:48:44.169Z,12.00
2022-10-15T05:51:13.073Z,12.30
2022-10-15T05:53:40.825Z,12.73
2022-10-15T05:56:08.571Z,11.48
2022-10-15T05:58:37.533Z,13.25
2022-10-15T06:01:08.146Z,11.88
2022-10-15T06:03:35.387Z,12.77
2022-10-15T06:06:02.721Z,13.13
2022-10-15T06:08:30.768Z,12.68
2022-10-15T06:11:06.879Z,11.48
2022-10-15T06:13:38.388Z,12.05
2022-10-15T06:16:05.677Z,12.30
2022-10-15T06:18:32.963Z,11.50
2022-10-15T06:21:00.102Z,11.55
2022-10-15T06:23:27.204Z,11.65
2022-10-15T06:25:54.154Z,10.27
2022-10-15T06:28:21.310Z,10.68
2022-10-15T06:30:48.239Z,10.88
2022-10-15T06:33:17.230Z,10.80
2022-10-15T06:35:44.331Z,11.57
2022-10-15T06:38:11.915Z,12.00
2022-10-15T06:40:40.219Z,12.07
2022-10-15T06:43:09.852Z,13.27
2022-10-15T06:45:42.762Z,12.95
2022-10-15T06:48:09.922Z,14.32
2022-10-15T06:50:38.669Z,12.65
2022-10-15T06:53:06.677Z,12.98
2022-10-15T06:55:34.100Z,12.77
2022-10-15T06:58:01.117Z,12.57
2022-10-15T07:00:28.427Z,12.60
2022-10-15T07:02:55.570Z,13.00
2022-10-15T07:05:22.704Z,12.82
2022-10-15T07:07:57.283Z,14.57
2022-10-15T07:10:26.183Z,12.10
2022-10-15T07:12:55.027Z,10.88
2022-10-15T07:15:22.201Z,11.93
2022-10-15T07:17:50.954Z,11.20
2022-10-15T07:20:23.543Z,12.55
2022-10-15T07:22:52.176Z,11.98
2022-10-15T07:25:19.833Z,12.73
2022-10-15T07:27:47.336Z,16.55
2022-10-15T07:30:14.799Z,14.70
2022-10-15T07:32:44.436Z,12.90
2022-10-15T07:35:13.830Z,17.45
2022-10-15T07:37:42.190Z,12.95
2022-10-15T07:40:10.366Z,12.35
2022-10-15T07:42:37.330Z,12.93
2022-10-15T07:45:04.609Z,13.60
2022-10-15T07:47:31.955Z,12.32
2022-10-15T07:49:58.948Z,11.80
2022-10-15T07:52:26.147Z,11.98
2022-10-15T07:54:53.818Z,14.48
2022-10-15T07:57:20.976Z,14.63
2022-10-15T07:59:47.986Z,14.73
2022-10-15T08:02:19.239Z,14.20
2022-10-15T08:04:46.465Z,15.20
2022-10-15T08:07:14.282Z,14.15
2022-10-15T08:09:41.580Z,13.57
2022-10-15T08:12:08.573Z,14.45
2022-10-15T08:14:36.827Z,14.10
2022-10-15T08:17:04.545Z,16.17
2022-10-15T08:19:31.511Z,17.33
2022-10-15T08:21:58.508Z,17.35
2022-10-15T08:24:25.851Z,19.02
2022-10-15T08:26:52.757Z,15.82
2022-10-15T08:29:19.703Z,13.60
2022-10-15T08:31:46.646Z,13.80
2022-10-15T08:34:13.845Z,15.50
2022-10-15T08:36:41.629Z,15.10
2022-10-15T08:39:09.321Z,15.25
2022-10-15T08:41:47.359Z,16.73
2022-10-15T08:44:43.715Z,18.52
2022-10-15T08:47:14.874Z,20.10
2022-10-15T08:49:51.344Z,23.48
2022-10-15T08:52:49.809Z,23.42
2022-10-15T08:55:20.139Z,22.05
2022-10-15T08:58:02.745Z,21.38
2022-10-15T09:00:35.696Z,21.67
2022-10-15T09:03:44.926Z,21.48
2022-10-15T09:06:26.226Z,23.50
2022-10-15T09:09:17.396Z,24.05
2022-10-15T09:12:06.871Z,25.58
2022-10-15T09:14:39.346Z,24.42
2022-10-15T09:17:18.127Z,21.65
2022-10-15T09:19:46.760Z,21.17
2022-10-15T09:22:18.669Z,23.00
2022-10-15T09:24:45.858Z,22.38
2022-10-15T09:27:34.520Z,23.73
2022-10-15T09:30:29.002Z,25.33
2022-10-15T09:33:03.855Z,27.33
2022-10-15T09:35:53.872Z,26.35
2022-10-15T09:38:40.538Z,24.60
2022-10-15T09:41:46.488Z,24.10
2022-10-15T09:44:19.673Z,23.27
2022-10-15T09:46:50.818Z,23.77
2022-10-15T09:49:21.829Z,25.77
2022-10-15T09:52:09.870Z,23.63
2022-10-15T09:54:58.629Z,25.70
2022-10-15T09:57:26.890Z,23.92
2022-10-15T10:00:02.019Z,25.10
2022-10-15T10:02:30.190Z,31.25
2022-10-15T10:04:58.400Z,27.38
2022-10-15T10:07:37.318Z,28.13
2022-10-15T10:10:28.638Z,33.25
2022-10-15T10:12:57.241Z,30.67
2022-10-15T10:15:27.284Z,32.55
2022-10-15T10:17:57.714Z,31.77
2022-10-15T10:20:30.623Z,31.48
2022-10-15T10:23:03.523Z,28.83
2022-10-15T10:25:35.522Z,28.75
2022-10-15T10:28:15.192Z,27.73
2022-10-15T10:31:04.696Z,30.48
2022-10-15T10:33:50.632Z,26.92
2022-10-15T10:36:20.608Z,27.63
2022-10-15T10:39:06.195Z,30.00
2022-10-15T10:41:55.243Z,29.58
2022-10-15T10:44:26.683Z,29.02
2022-10-15T10:47:13.154Z,29.80
2022-10-15T10:49:51.622Z,30.50
2022-10-15T10:52:37.591Z,35.28
2022-10-15T10:55:24.796Z,29.85
2022-10-15T10:57:58.169Z,30.17
2022-10-15T11:00:40.336Z,33.67
2022-10-15T11:03:23.476Z,33.45
2022-10-15T11:05:57.883Z,31.80
2022-10-15T11:08:44.691Z,29.27
2022-10-15T11:14:17.402Z,31.38
2022-10-15T11:16:59.981Z,31.92
2022-10-15T11:23:27.325Z,33.50
2022-10-15T11:26:02.989Z,31.65
2022-10-15T11:28:40.471Z,35.05
2022-10-15T11:31:25.289Z,32.13
2022-10-15T11:33:55.090Z,34.78
2022-10-15T11:36:31.827Z,35.95
2022-10-15T11:39:28.524Z,32.50
2022-10-15T11:42:26.173Z,34.45
2022-10-15T11:45:06.453Z,33.67
2022-10-15T11:47:53.413Z,38.35
2022-10-15T11:50:37.445Z,31.88
2022-10-15T11:53:30.475Z,32.58
2022-10-15T11:56:11.408Z,30.65
2022-10-15T11:58:44.628Z,28.10
2022-10-15T12:01:23.156Z,29.33
2022-10-15T12:03:58.561Z,27.17
2022-10-15T12:06:28.696Z,27.48
2022-10-15T12:08:58.096Z,26.58
2022-10-15T12:11:40.054Z,27.10
2022-10-15T12:14:19.529Z,30.02
2022-10-15T12:16:55.705Z,26.33
2022-10-15T12:21:55.747Z,28.42
2022-10-15T12:24:45.371Z,26.33
2022-10-15T12:27:31.277Z,28.83
2022-10-15T12:30:13.187Z,26.35
2022-10-15T12:32:46.651Z,25.55
2022-10-15T12:35:19.718Z,26.38
2022-10-15T12:37:49.664Z,25.52
2022-10-15T12:40:22.740Z,26.10
2022-10-15T12:43:12.744Z,24.85
2022-10-15T12:45:50.504Z,27.55
2022-10-15T12:48:26.579Z,25.35
2022-10-15T12:51:16.665Z,24.02
2022-10-15T12:53:46.105Z,24.52
2022-10-15T12:56:16.360Z,25.35
2022-10-15T12:58:47.791Z,26.42
2022-10-15T13:01:15.014Z,25.60
2022-10-15T13:03:53.934Z,25.52
2022-10-15T13:06:21.055Z,26.63
2022-10-15T13:09:12.494Z,24.77
2022-10-15T13:11:54.703Z,26.33
2022-10-15T13:14:43.433Z,25.63
2022-10-15T13:17:20.593Z,23.73
2022-10-15T13:20:00.600Z,25.40
2022-10-15T13:22:29.921Z,24.10
2022-10-15T13:24:57.385Z,23.38
2022-10-15T13:27:37.974Z,23.20
2022-10-15T13:30:15.773Z,21.77
2022-10-15T13:32:49.410Z,22.55
2022-10-15T13:35:29.360Z,22.42
2022-10-15T13:37:57.787Z,22.70
2022-10-15T13:40:30.963Z,24.27
2022-10-15T13:43:00.383Z,22.67
2022-10-15T13:45:27.293Z,21.73
2022-10-15T13:47:55.417Z,22.45
2022-10-15T13:50:25.094Z,21.92
2022-10-15T13:53:19.709Z,21.27
2022-10-15T13:55:50.355Z,20.17
2022-10-15T13:58:26.672Z,20.83
2022-10-15T14:01:01.897Z,18.70
2022-10-15T14:03:33.739Z,19.80
2022-10-15T14:06:34.038Z,18.77
2022-10-15T14:09:24.608Z,18.75
2022-10-15T14:11:51.821Z,19.10
2022-10-15T14:14:32.707Z,19.65
2022-10-15T14:17:06.036Z,19.75
2022-10-15T14:19:36.380Z,19.13
2022-10-15T14:22:04.503Z,18.20
2022-10-15T14:24:41.017Z,18.55
2022-10-15T14:27:29.311Z,17.95
2022-10-15T14:29:59.370Z,18.00
2022-10-15T14:32:28.869Z,19.55
2022-10-15T14:35:00.844Z,18.27
2022-10-15T14:37:38.391Z,17.02
2022-10-15T14:40:15.553Z,16.85
2022-10-15T14:42:48.385Z,16.75
2022-10-15T14:45:19.290Z,16.45
2022-10-15T14:47:51.348Z,15.68
2022-10-15T14:50:20.841Z,14.50
2022-10-15T14:52:53.255Z,16.13
2022-10-15T14:55:33.692Z,15.90
2022-10-15T14:58:07.847Z,16.20
2022-10-15T15:00:43.490Z,15.45
2022-10-15T15:03:21.187Z,14.95
2022-10-15T15:05:54.311Z,76.05
2022-10-15T15:08:22.878Z,21.33
2022-10-15T15:10:52.161Z,16.20
2022-10-15T15:13:24.609Z,16.10
2022-10-15T15:15:51.771Z,15.82
2022-10-15T15:18:22.629Z,15.80
2022-10-15T15:20:54.249Z,15.20
2022-10-15T15:23:24.913Z,15.35
2022-10-15T15:25:53.431Z,16.67
2022-10-15T15:28:23.609Z,17.13
2022-10-15T15:31:00.028Z,16.45
2022-10-15T15:36:09.683Z,17.75
2022-10-15T15:38:36.865Z,18.08
2022-10-15T15:41:12.366Z,18.27
2022-10-15T15:43:39.521Z,19.08
2022-10-15T15:46:06.988Z,20.05
2022-10-15T15:48:33.891Z,17.60
2022-10-15T15:51:08.687Z,20.38
2022-10-15T15:53:35.948Z,20.33
2022-10-15T15:56:02.879Z,20.13
2022-10-15T15:58:30.164Z,20.23
2022-10-15T16:00:57.360Z,19.10
2022-10-15T16:03:25.277Z,18.25
2022-10-15T16:05:53.128Z,18.00
2022-10-15T16:08:20.111Z,19.90
2022-10-15T16:10:49.864Z,18.88
2022-10-15T16:13:18.644Z,19.60
2022-10-15T16:15:45.850Z,18.77
2022-10-15T16:18:13.263Z,19.65
2022-10-15T16:20:48.419Z,19.92
2022-10-15T16:23:16.393Z,20.52
2022-10-15T16:25:44.516Z,18.88
2022-10-15T16:28:13.863Z,18.15
2022-10-15T16:30:40.861Z,18.60
2022-10-15T16:35:42.180Z,18.98
2022-10-15T16:38:10.033Z,19.38
2022-10-15T16:40:38.424Z,18.73
2022-10-15T16:43:06.086Z,20.50
2022-10-15T16:45:34.167Z,19.33
2022-10-15T16:48:02.111Z,18.33
2022-10-15T16:50:29.249Z,18.58
2022-10-15T16:52:56.488Z,18.42
2022-10-15T16:55:23.702Z,19.00
2022-10-15T16:57:51.438Z,19.83
2022-10-15T17:00:20.716Z,20.20
2022-10-15T17:02:48.372Z,20.30
2022-10-15T17:05:15.812Z,20.73
2022-10-15T17:07:43.205Z,20.73
2022-10-15T17:10:14.021Z,21.55
2022-10-15T17:12:42.889Z,20.48
2022-10-15T17:15:11.759Z,22.13
2022-10-15T17:17:38.998Z,21.95
2022-10-15T17:20:06.758Z,24.10
2022-10-15T17:22:35.054Z,21.77
2022-10-15T17:25:02.320Z,24.20
2022-10-15T17:27:33.238Z,23.52
2022-10-15T17:30:00.395Z,21.38
2022-10-15T17:32:27.852Z,21.30
2022-10-15T17:34:54.924Z,22.15
2022-10-15T17:37:22.010Z,22.88
2022-10-15T17:39:49.152Z,23.13
2022-10-15T17:42:16.431Z,23.23
2022-10-15T17:44:43.750Z,24.33
2022-10-15T17:47:10.923Z,23.08
2022-10-15T17:49:37.882Z,21.50
2022-10-15T17:52:05.940Z,22.38
2022-10-15T17:54:33.701Z,22.38
2022-10-15T17:57:00.970Z,23.13
2022-10-15T17:59:28.940Z,21.55
2022-10-15T18:02:03.284Z,22.60
2022-10-15T18:04:31.567Z,21.98
2022-10-15T18:06:59.520Z,21.42
2022-10-15T18:09:28.225Z,21.52
2022-10-15T18:11:56.744Z,21.80
2022-10-15T18:14:23.787Z,22.05
2022-10-15T18:16:51.324Z,21.75
2022-10-15T18:19:19.420Z,22.20
2022-10-15T18:24:23.421Z,20.95
2022-10-15T18:26:52.153Z,22.48
2022-10-15T18:29:19.930Z,21.55
2022-10-15T18:31:48.873Z,45.72
2022-10-15T18:34:18.991Z,22.58
2022-10-15T18:36:46.744Z,21.73
2022-10-15T18:39:13.701Z,21.85
2022-10-15T18:41:41.252Z,21.90
2022-10-15T18:44:16.717Z,20.67
2022-10-15T18:46:45.294Z,20.10
2022-10-15T18:49:15.802Z,22.77
2022-10-15T18:51:46.611Z,21.20
2022-10-15T18:54:14.708Z,21.85
2022-10-15T18:56:42.589Z,21.48
2022-10-15T18:59:10.320Z,21.38
2022-10-15T19:01:46.115Z,20.38
2022-10-15T19:04:18.272Z,20.52
2022-10-15T19:06:51.683Z,21.02
2022-10-15T19:09:22.073Z,20.83
2022-10-15T19:11:52.774Z,24.05
2022-10-15T19:14:20.561Z,21.92
2022-10-15T19:16:47.984Z,21.58
2022-10-15T19:19:19.133Z,20.42
2022-10-15T19:21:48.689Z,19.70
2022-10-15T19:24:18.076Z,18.98
2022-10-15T19:26:45.561Z,19.55
2022-10-15T19:29:13.283Z,19.27
2022-10-15T19:31:43.130Z,19.33
2022-10-15T19:34:11.495Z,18.73
2022-10-15T19:36:42.316Z,19.73
2022-10-15T19:39:15.891Z,18.52
2022-10-15T19:41:44.471Z,19.98
2022-10-15T19:44:13.997Z,20.73
2022-10-15T19:46:41.336Z,21.40
2022-10-15T19:49:12.060Z,19.50
2022-10-15T19:51:39.279Z,19.08
2022-10-15T19:54:07.343Z,17.98
2022-10-15T19:56:35.024Z,18.60
2022-10-15T19:59:04.602Z,18.38
2022-10-15T20:01:32.358Z,17.73
2022-10-15T20:04:04.852Z,18.05
2022-10-15T20:06:37.280Z,17.98
2022-10-15T20:09:09.009Z,18.50
2022-10-15T20:11:36.851Z,17.35
2022-10-15T20:14:03.989Z,17.92
2022-10-15T20:16:33.145Z,16.25
2022-10-15T20:19:05.532Z,17.77
2022-10-15T20:21:32.673Z,16.33
2022-10-15T20:23:59.996Z,16.52
2022-10-15T20:26:27.372Z,17.30
2022-10-15T20:28:54.466Z,15.95
2022-10-15T20:31:25.079Z,15.52
2022-10-15T20:33:52.002Z,16.00
2022-10-15T20:36:23.666Z,15.93
2022-10-15T20:38:51.783Z,16.10
2022-10-15T20:41:19.860Z,15.30
2022-10-15T20:43:47.391Z,14.48
2022-10-15T20:46:20.027Z,16.27
2022-10-15T20:48:47.350Z,15.80
2022-10-15T20:51:17.690Z,15.15
2022-10-15T20:53:45.836Z,17.20
2022-10-15T20:56:12.925Z,16.05
2022-10-15T20:58:39.962Z,17.15
2022-10-15T21:01:08.064Z,15.55
2022-10-15T21:03:36.766Z,15.13
2022-10-15T21:06:03.817Z,16.17
2022-10-15T21:08:30.932Z,15.85
2022-10-15T21:11:06.187Z,16.38
2022-10-15T21:13:34.050Z,16.40
2022-10-15T21:16:02.832Z,16.08
2022-10-15T21:18:30.115Z,16.08
2022-10-15T21:21:06.599Z,14.90
2022-10-15T21:23:33.915Z,15.65
2022-10-15T21:26:08.631Z,15.98
2022-10-15T21:28:36.641Z,15.93
2022-10-15T21:31:11.381Z,15.27
2022-10-15T21:33:38.831Z,15.73
2022-10-15T21:36:26.255Z,15.38
2022-10-15T21:38:58.697Z,14.38
2022-10-15T21:41:27.103Z,16.52
2022-10-15T21:43:54.115Z,14.27
2022-10-15T21:46:20.988Z,15.57
2022-10-15T21:48:48.178Z,15.57
2022-10-15T21:51:24.071Z,14.98
2022-10-15T21:53:51.937Z,16.58
2022-10-15T21:56:19.632Z,15.32
2022-10-15T21:58:46.783Z,15.52
2022-10-15T22:01:22.937Z,15.95
2022-10-15T22:03:52.158Z,15.90
2022-10-15T22:06:21.144Z,16.75
2022-10-15T22:08:48.069Z,17.10
2022-10-15T22:11:19.696Z,17.20
2022-10-15T22:13:49.312Z,15.98
2022-10-15T22:16:17.809Z,15.68
2022-10-15T22:18:45.070Z,16.88
2022-10-15T22:21:23.734Z,16.00
2022-10-15T22:23:53.843Z,17.05
2022-10-15T22:26:23.782Z,16.23
2022-10-15T22:28:57.137Z,15.70
2022-10-15T22:31:24.970Z,15.43
2022-10-15T22:33:52.096Z,16.05
2022-10-15T22:36:26.960Z,14.90
2022-10-15T22:39:01.730Z,15.00
2022-10-15T22:41:30.606Z,15.63
2022-10-15T22:43:57.608Z,15.50
2022-10-15T22:46:25.939Z,15.82
2022-10-15T22:48:54.114Z,16.15
2022-10-15T22:51:21.289Z,16.25
2022-10-15T22:53:48.490Z,16.15
2022-10-15T22:56:19.643Z,15.68
2022-10-15T22:58:47.239Z,16.38
2022-10-15T23:01:15.713Z,16.17
2022-10-15T23:03:46.027Z,16.77
2022-10-15T23:06:14.199Z,17.77
2022-10-15T23:08:41.956Z,17.80
2022-10-15T23:11:14.079Z,17.83
2022-10-15T23:13:42.523Z,17.40
2022-10-15T23:16:17.499Z,17.85
2022-10-15T23:18:45.842Z,16.92
2022-10-15T23:21:14.225Z,18.23
2022-10-15T23:23:42.152Z,19.05
2022-10-15T23:26:14.896Z,18.30
2022-10-15T23:28:49.556Z,17.83
2022-10-15T23:31:21.394Z,17.92
2022-10-15T23:33:48.625Z,18.25
2022-10-15T23:36:15.651Z,19.35
2022-10-15T23:38:42.581Z,19.23
2022-10-15T23:41:10.688Z,20.23
2022-10-15T23:43:38.087Z,19.73
2022-10-15T23:46:05.100Z,19.33
2022-10-15T23:48:32.045Z,19.20
2022-10-15T23:51:02.503Z,19.35
2022-10-15T23:53:33.028Z,20.75
2022-10-15T23:56:03.049Z,19.95
2022-10-15T23:58:32.384Z,20.63
